Weather at Independence State Airport

Public forecast

Using degrees Fahrenheit for public forecast. Weather courtesy of forecast.io.

Closest aviation weather report (METAR) to Independence State Airport

Closest report is Salem Municipal Airport/McNary Field, 8.7 nm (16.1 km) ENE. Retrieved 2021/07/29 04:56 UTC (1 hour ago):

KSLE 290456Z AUTO 00000KT 10SM CLR 26/11 A3001 RMK AO2 SLP160 T02610106

Closest aviation forecast (TAF) to Independence State Airport

Closest forecast is Salem Municipal Airport/McNary Field, 8.7 nm (16.1 km) ENE. Retrieved 2021-07-29 00:30 UTC (5 hours ago):

TAF KSLE 282327Z 2900/2924 VRB05KT P6SM SKC FM292000 35011KT P6SM SKC